createdAt,value
2023-05-22T00:02:00.180Z,100573.41
2023-05-22T00:04:30.250Z,100569.88
2023-05-22T00:06:56.792Z,100571.00
2023-05-22T00:09:25.826Z,100568.66
2023-05-22T00:11:53.285Z,100568.81
2023-05-22T00:14:19.838Z,100566.09
2023-05-22T00:16:48.471Z,100564.38
2023-05-22T00:19:16.527Z,100565.22
2023-05-22T00:21:43.933Z,100559.41
2023-05-22T00:24:10.771Z,100563.84
2023-05-22T00:26:37.444Z,100551.63
2023-05-22T00:29:05.863Z,100557.91
2023-05-22T00:31:32.653Z,100556.13
2023-05-22T00:33:59.430Z,100549.19
2023-05-22T00:36:26.046Z,100550.22
2023-05-22T00:38:52.553Z,100542.38
2023-05-22T00:41:19.358Z,100546.38
2023-05-22T00:43:46.026Z,100548.31
2023-05-22T00:46:12.679Z,100547.00
2023-05-22T00:48:39.440Z,100547.84
2023-05-22T00:51:07.277Z,100549.56
2023-05-22T00:53:33.963Z,100561.91
2023-05-22T00:56:01.029Z,100561.28
2023-05-22T00:58:27.743Z,100565.09
2023-05-22T01:00:55.475Z,100570.03
2023-05-22T01:03:26.969Z,100573.25
2023-05-22T01:05:54.876Z,100576.97
2023-05-22T01:08:21.656Z,100580.81
2023-05-22T01:10:54.432Z,100574.75
2023-05-22T01:13:39.463Z,100574.25
2023-05-22T01:16:13.052Z,100573.16
2023-05-22T01:19:04.232Z,100574.78
2023-05-22T01:21:36.846Z,100565.03
2023-05-22T01:24:41.948Z,100563.50
2023-05-22T01:27:11.462Z,100564.44
2023-05-22T01:29:47.978Z,100567.41
2023-05-22T01:32:20.376Z,100563.81
2023-05-22T01:34:47.935Z,100567.41
2023-05-22T01:37:15.245Z,100564.13
2023-05-22T01:39:43.271Z,100559.31
2023-05-22T01:42:18.134Z,100553.34
2023-05-22T01:44:44.752Z,100563.81
2023-05-22T01:47:11.229Z,100560.22
2023-05-22T01:49:37.806Z,100550.56
2023-05-22T01:52:23.346Z,100550.56
2023-05-22T01:54:58.399Z,100549.72
2023-05-22T01:57:32.723Z,100540.97
2023-05-22T02:00:09.955Z,100538.41
2023-05-22T02:02:39.215Z,100541.97
2023-05-22T02:05:08.497Z,100531.53
2023-05-22T02:07:37.901Z,100530.66
2023-05-22T02:10:07.164Z,100533.66
2023-05-22T02:12:34.267Z,100534.72
2023-05-22T02:15:01.356Z,100547.19
2023-05-22T02:17:27.962Z,100534.97
2023-05-22T02:19:54.476Z,100548.66
2023-05-22T02:22:20.970Z,100543.88
2023-05-22T02:24:48.628Z,100541.41
2023-05-22T02:27:15.456Z,100543.56
2023-05-22T02:29:41.928Z,100538.13
2023-05-22T02:32:08.502Z,100532.00
2023-05-22T02:34:35.060Z,100534.44
2023-05-22T02:37:04.333Z,100531.78
2023-05-22T02:39:30.947Z,100532.72
2023-05-22T02:41:57.483Z,100537.22
2023-05-22T02:44:23.960Z,100531.31
2023-05-22T02:46:50.618Z,100525.84
2023-05-22T02:49:17.365Z,100531.22
2023-05-22T02:51:47.508Z,100535.56
2023-05-22T02:54:15.796Z,100528.41
2023-05-22T02:56:43.262Z,100519.63
2023-05-22T02:59:10.064Z,100518.56
2023-05-22T03:01:38.808Z,100524.13
2023-05-22T03:04:06.646Z,100521.78
2023-05-22T03:06:35.193Z,100522.03
2023-05-22T03:09:03.737Z,100516.81
2023-05-22T03:11:33.316Z,100514.09
2023-05-22T03:13:59.894Z,100514.16
2023-05-22T03:16:27.012Z,100521.38
2023-05-22T03:19:16.641Z,100527.66
2023-05-22T03:21:45.989Z,100518.53
2023-05-22T03:24:15.437Z,100521.78
2023-05-22T03:26:42.010Z,100519.00
2023-05-22T03:29:08.624Z,100527.00
2023-05-22T03:31:36.221Z,100517.31
2023-05-22T03:34:03.093Z,100524.50
2023-05-22T03:36:32.355Z,100528.72
2023-05-22T03:38:59.058Z,100522.91
2023-05-22T03:41:25.754Z,100517.94
2023-05-22T03:43:52.317Z,100522.13
2023-05-22T03:46:18.995Z,100521.44
2023-05-22T03:48:45.594Z,100518.91
2023-05-22T03:51:12.130Z,100520.41
2023-05-22T03:53:38.600Z,100522.13
2023-05-22T03:56:05.264Z,100522.44
2023-05-22T03:58:31.817Z,100525.19
2023-05-22T04:00:58.689Z,100533.00
2023-05-22T04:03:25.395Z,100528.50
2023-05-22T04:05:52.048Z,100526.72
2023-05-22T04:08:18.795Z,100525.63
2023-05-22T04:10:46.715Z,100528.19
2023-05-22T04:13:14.165Z,100530.84
2023-05-22T04:15:46.909Z,100534.31
2023-05-22T04:18:14.115Z,100534.31
2023-05-22T04:20:41.159Z,100541.31
2023-05-22T04:23:07.960Z,100533.56
2023-05-22T04:25:34.614Z,100535.00
2023-05-22T04:28:04.023Z,100538.66
2023-05-22T04:30:34.446Z,100541.16
2023-05-22T04:33:01.749Z,100542.00
2023-05-22T04:35:29.651Z,100550.00
2023-05-22T04:38:02.655Z,100554.00
2023-05-22T04:40:30.421Z,100549.69
2023-05-22T04:42:59.985Z,100550.28
2023-05-22T04:45:31.806Z,100554.97
2023-05-22T04:47:59.766Z,100554.28
2023-05-22T04:50:26.292Z,100551.56
2023-05-22T04:52:53.491Z,100551.28
2023-05-22T04:55:20.417Z,100551.22
2023-05-22T04:57:47.415Z,100547.13
2023-05-22T05:00:17.009Z,100542.69
2023-05-22T05:02:43.782Z,100540.78
2023-05-22T05:05:10.807Z,100542.28
2023-05-22T05:07:40.686Z,100547.28
2023-05-22T05:10:07.734Z,100540.78
2023-05-22T05:12:34.491Z,100549.34
2023-05-22T05:15:01.826Z,100544.06
2023-05-22T05:17:28.774Z,100545.69
2023-05-22T05:19:55.511Z,100544.53
2023-05-22T05:22:22.017Z,100546.03
2023-05-22T05:24:48.689Z,100554.63
2023-05-22T05:27:15.326Z,100548.47
2023-05-22T05:29:42.483Z,100557.25
2023-05-22T05:32:09.908Z,100552.03
2023-05-22T05:34:36.476Z,100555.63
2023-05-22T05:37:03.102Z,100554.47
2023-05-22T05:39:29.755Z,100548.31
2023-05-22T05:41:56.389Z,100554.34
2023-05-22T05:44:23.008Z,100566.66
2023-05-22T05:46:49.633Z,100559.63
2023-05-22T05:49:16.209Z,100563.03
2023-05-22T05:51:42.690Z,100563.97
2023-05-22T05:54:09.228Z,100563.81
2023-05-22T05:56:35.796Z,100569.88
2023-05-22T05:59:02.477Z,100563.53
2023-05-22T06:01:32.909Z,100567.75
2023-05-22T06:04:03.234Z,100567.81
2023-05-22T06:06:36.256Z,100569.59
2023-05-22T06:09:06.166Z,100574.63
2023-05-22T06:11:33.276Z,100574.53
2023-05-22T06:14:02.792Z,100583.25
2023-05-22T06:16:29.751Z,100576.94
2023-05-22T06:18:58.834Z,100581.94
2023-05-22T06:21:25.494Z,100584.44
2023-05-22T06:23:52.095Z,100587.81
2023-05-22T06:26:18.677Z,100588.75
2023-05-22T06:28:45.598Z,100590.47
2023-05-22T06:31:22.969Z,100589.44
2023-05-22T06:33:49.970Z,100586.78
2023-05-22T06:36:17.544Z,100592.00
2023-05-22T06:38:46.063Z,100591.03
2023-05-22T06:41:12.606Z,100594.53
2023-05-22T06:43:39.107Z,100590.00
2023-05-22T06:46:07.218Z,100597.78
2023-05-22T06:48:35.130Z,100603.72
2023-05-22T06:51:02.175Z,100599.13
2023-05-22T06:53:28.862Z,100604.13
2023-05-22T06:55:56.546Z,100597.44
2023-05-22T06:58:23.070Z,100610.41
2023-05-22T07:00:49.618Z,100611.81
2023-05-22T07:03:16.563Z,100612.03
2023-05-22T07:05:43.146Z,100612.13
2023-05-22T07:08:10.358Z,100617.25
2023-05-22T07:10:37.156Z,100613.38
2023-05-22T07:13:03.910Z,100622.09
2023-05-22T07:15:30.505Z,100617.44
2023-05-22T07:17:57.105Z,100623.81
2023-05-22T07:20:25.747Z,100621.97
2023-05-22T07:22:52.442Z,100623.66
2023-05-22T07:25:18.993Z,100623.97
2023-05-22T07:27:45.604Z,100621.88
2023-05-22T07:30:12.586Z,100630.84
2023-05-22T07:32:39.307Z,100634.25
2023-05-22T07:35:07.262Z,100628.63
2023-05-22T07:37:34.066Z,100631.91
2023-05-22T07:40:00.883Z,100626.91
2023-05-22T07:42:28.110Z,100631.63
2023-05-22T07:44:54.658Z,100634.88
2023-05-22T07:47:21.183Z,100630.28
2023-05-22T07:49:47.725Z,100638.25
2023-05-22T07:52:14.265Z,100641.09
2023-05-22T07:54:42.434Z,100644.22
2023-05-22T07:57:12.534Z,100652.94
2023-05-22T07:59:39.076Z,100645.16
2023-05-22T08:02:05.820Z,100647.03
2023-05-22T08:04:32.574Z,100646.88
2023-05-22T08:06:59.270Z,100649.44
2023-05-22T08:09:25.837Z,100653.78
2023-05-22T08:11:52.379Z,100662.56
2023-05-22T08:14:18.864Z,100662.63
2023-05-22T08:16:45.499Z,100665.19
2023-05-22T08:19:12.396Z,100657.94
2023-05-22T08:21:39.771Z,100666.84
2023-05-22T08:24:07.893Z,100662.47
2023-05-22T08:26:34.423Z,100658.50
2023-05-22T08:29:01.369Z,100659.03
2023-05-22T08:31:30.966Z,100659.03
2023-05-22T08:34:02.340Z,100665.41
2023-05-22T08:36:31.673Z,100663.88
2023-05-22T08:38:58.227Z,100672.59
2023-05-22T08:41:24.786Z,100666.03
2023-05-22T08:43:51.280Z,100676.09
2023-05-22T08:46:20.022Z,100678.53
2023-05-22T08:48:47.823Z,100677.66
2023-05-22T08:51:18.641Z,100673.94
2023-05-22T08:53:46.334Z,100679.44
2023-05-22T08:56:13.092Z,100675.44
2023-05-22T08:58:40.707Z,100673.59
2023-05-22T09:01:08.821Z,100675.06
2023-05-22T09:03:36.925Z,100679.75
2023-05-22T09:06:04.190Z,100676.56
2023-05-22T09:08:30.737Z,100686.16
2023-05-22T09:10:57.471Z,100685.53
2023-05-22T09:13:29.163Z,100688.97
2023-05-22T09:16:00.830Z,100685.16
2023-05-22T09:18:29.047Z,100686.50
2023-05-22T09:20:59.406Z,100695.13
2023-05-22T09:23:28.214Z,100696.94
2023-05-22T09:25:59.255Z,100693.25
2023-05-22T09:28:26.240Z,100693.34
2023-05-22T09:30:54.520Z,100697.78
2023-05-22T09:33:23.257Z,100693.63
2023-05-22T09:35:54.177Z,100690.22
2023-05-22T09:38:27.771Z,100694.75
2023-05-22T09:40:55.384Z,100692.56
2023-05-22T09:43:26.543Z,100697.25
2023-05-22T09:46:00.954Z,100692.25
2023-05-22T09:48:27.493Z,100691.09
2023-05-22T09:50:56.061Z,100681.03
2023-05-22T09:53:27.933Z,100688.81
2023-05-22T09:55:56.724Z,100688.50
2023-05-22T09:58:25.953Z,100680.38
2023-05-22T10:00:55.730Z,100686.44
2023-05-22T10:03:27.038Z,100678.22
2023-05-22T10:05:55.690Z,100680.47
2023-05-22T10:08:26.132Z,100680.63
2023-05-22T10:10:53.205Z,100675.47
2023-05-22T10:13:21.059Z,100696.16
2023-05-22T10:15:49.003Z,100688.31
2023-05-22T10:18:16.884Z,100691.16
2023-05-22T10:20:44.339Z,100690.53
2023-05-22T10:23:11.306Z,100696.91
2023-05-22T10:25:38.473Z,100693.00
2023-05-22T10:28:06.307Z,100694.31
2023-05-22T10:30:47.750Z,100696.25
2023-05-22T10:33:22.262Z,100696.59
2023-05-22T10:36:08.646Z,100689.78
2023-05-22T10:38:50.390Z,100687.88
2023-05-22T10:41:17.518Z,100683.28
2023-05-22T10:43:48.291Z,100686.44
2023-05-22T10:46:15.131Z,100685.69
2023-05-22T10:48:45.697Z,100695.63
2023-05-22T10:51:19.388Z,100689.44
2023-05-22T10:53:53.409Z,100678.31
2023-05-22T10:56:20.698Z,100680.03
2023-05-22T10:59:05.163Z,100692.03
2023-05-22T11:01:37.657Z,100686.13
2023-05-22T11:04:04.503Z,100692.63
2023-05-22T11:06:41.942Z,100681.97
2023-05-22T11:09:30.192Z,100677.91
2023-05-22T11:12:22.438Z,100671.47
2023-05-22T11:14:58.139Z,100680.88
2023-05-22T11:17:29.066Z,100672.22
2023-05-22T11:20:01.994Z,100664.97
2023-05-22T11:22:41.940Z,100675.25
2023-05-22T11:25:16.682Z,100667.25
2023-05-22T11:27:43.880Z,100666.69
2023-05-22T11:30:11.766Z,100664.69
2023-05-22T11:32:39.890Z,100663.25
2023-05-22T11:35:08.485Z,100668.75
2023-05-22T11:37:39.703Z,100664.72
2023-05-22T11:40:07.256Z,100672.69
2023-05-22T11:42:33.905Z,100665.06
2023-05-22T11:45:00.673Z,100660.94
2023-05-22T11:47:29.110Z,100661.00
2023-05-22T11:50:03.003Z,100655.25
2023-05-22T11:52:33.570Z,100650.81
2023-05-22T11:55:00.395Z,100657.41
2023-05-22T11:57:27.167Z,100650.91
2023-05-22T11:59:54.279Z,100652.28
2023-05-22T12:02:20.956Z,100643.91
2023-05-22T12:04:47.595Z,100641.38
2023-05-22T12:07:15.342Z,100648.97
2023-05-22T12:09:42.988Z,100651.59
2023-05-22T12:12:11.538Z,100649.69
2023-05-22T12:14:38.270Z,100641.00
2023-05-22T12:17:05.045Z,100637.22
2023-05-22T12:19:32.549Z,100630.41
2023-05-22T12:21:59.445Z,100635.19
2023-05-22T12:24:26.147Z,100628.03
2023-05-22T12:26:53.972Z,100632.31
2023-05-22T12:29:23.735Z,100629.66
2023-05-22T12:31:50.799Z,100623.09
2023-05-22T12:34:18.762Z,100617.16
2023-05-22T12:36:46.907Z,100622.25
2023-05-22T12:39:17.469Z,100624.09
2023-05-22T12:41:45.157Z,100628.91
2023-05-22T12:44:12.132Z,100623.41
2023-05-22T12:46:38.821Z,100618.97
2023-05-22T12:49:05.614Z,100623.09
2023-05-22T12:51:32.818Z,100621.16
2023-05-22T12:54:00.155Z,100624.50
2023-05-22T12:56:27.324Z,100621.06
2023-05-22T12:58:53.869Z,100615.13
2023-05-22T13:01:21.733Z,100614.38
2023-05-22T13:03:48.336Z,100619.03
2023-05-22T13:06:15.017Z,100620.50
2023-05-22T13:08:41.517Z,100620.44
2023-05-22T13:11:08.023Z,100619.13
2023-05-22T13:13:34.609Z,100622.66
2023-05-22T13:16:01.134Z,100630.16
2023-05-22T13:18:27.695Z,100618.13
2023-05-22T13:20:56.429Z,100620.81
2023-05-22T13:23:23.169Z,100610.28
2023-05-22T13:25:49.812Z,100610.13
2023-05-22T13:28:16.333Z,100616.88
2023-05-22T13:30:42.833Z,100604.38
2023-05-22T13:33:09.373Z,100602.22
2023-05-22T13:35:36.001Z,100607.38
2023-05-22T13:38:02.654Z,100606.38
2023-05-22T13:40:29.119Z,100608.56
2023-05-22T13:42:55.753Z,100608.81
2023-05-22T13:45:22.348Z,100607.88
2023-05-22T13:47:49.732Z,100601.75
2023-05-22T13:50:16.356Z,100604.13
2023-05-22T13:52:42.828Z,100597.78
2023-05-22T13:55:09.659Z,100590.50
2023-05-22T13:57:37.030Z,100596.41
2023-05-22T14:00:04.213Z,100600.88
2023-05-22T14:02:30.817Z,100592.94
2023-05-22T14:04:57.423Z,100591.91
2023-05-22T14:07:23.938Z,100599.66
2023-05-22T14:09:50.504Z,100594.91
2023-05-22T14:12:16.985Z,100596.88
2023-05-22T14:14:43.492Z,100601.63
2023-05-22T14:17:10.075Z,100605.25
2023-05-22T14:19:38.611Z,100602.56
2023-05-22T14:22:05.359Z,100613.06
2023-05-22T14:24:31.905Z,100616.59
2023-05-22T14:26:58.674Z,100604.31
2023-05-22T14:29:25.931Z,100601.53
2023-05-22T14:32:01.151Z,100608.84
2023-05-22T14:34:27.720Z,100608.19
2023-05-22T14:36:56.558Z,100602.59
2023-05-22T14:39:24.668Z,100604.06
2023-05-22T14:41:52.801Z,100605.06
2023-05-22T14:44:19.649Z,100600.09
2023-05-22T14:46:46.428Z,100596.09
2023-05-22T14:49:13.059Z,100594.38
2023-05-22T14:51:39.661Z,100597.97
2023-05-22T14:54:06.936Z,100590.81
2023-05-22T14:56:33.709Z,100589.81
2023-05-22T14:59:00.485Z,100587.09
2023-05-22T15:01:27.131Z,100576.13
2023-05-22T15:03:53.900Z,100581.72
2023-05-22T15:06:20.420Z,100586.97
2023-05-22T15:08:46.919Z,100576.19
2023-05-22T15:11:13.534Z,100572.09
2023-05-22T15:13:40.117Z,100567.59
2023-05-22T15:16:08.734Z,100572.38
2023-05-22T15:18:35.332Z,100569.97
2023-05-22T15:21:01.933Z,100563.84
2023-05-22T15:23:28.403Z,100554.38
2023-05-22T15:25:55.079Z,100563.38
2023-05-22T15:28:21.972Z,100566.53
2023-05-22T15:30:48.725Z,100567.50
2023-05-22T15:33:15.915Z,100550.84
2023-05-22T15:35:44.203Z,100544.94
2023-05-22T15:38:13.197Z,100542.75
2023-05-22T15:40:40.912Z,100551.50
2023-05-22T15:43:07.980Z,100552.88
2023-05-22T15:45:37.121Z,100554.53
2023-05-22T15:48:05.121Z,100554.19
2023-05-22T15:50:32.472Z,100553.47
2023-05-22T15:53:00.241Z,100552.50
2023-05-22T15:55:26.902Z,100549.88
2023-05-22T15:57:53.517Z,100560.00
2023-05-22T16:00:21.440Z,100560.03
2023-05-22T16:02:49.345Z,100562.50
2023-05-22T16:05:16.121Z,100558.91
2023-05-22T16:07:43.032Z,100562.25
2023-05-22T16:10:10.681Z,100568.00
2023-05-22T16:12:39.606Z,100569.63
2023-05-22T16:15:07.282Z,100562.56
2023-05-22T16:17:33.941Z,100578.00
2023-05-22T16:20:00.600Z,100563.06
2023-05-22T16:22:36.645Z,100564.38
2023-05-22T16:25:07.720Z,100581.63
2023-05-22T16:27:34.297Z,100573.81
2023-05-22T16:30:02.616Z,100570.81
2023-05-22T16:32:29.758Z,100578.75
2023-05-22T16:34:56.274Z,100584.28
2023-05-22T16:37:23.752Z,100581.06
2023-05-22T16:39:50.351Z,100592.38
2023-05-22T16:42:17.539Z,100583.03
2023-05-22T16:44:44.240Z,100584.19
2023-05-22T16:47:11.538Z,100581.66
2023-05-22T16:49:40.349Z,100573.94
2023-05-22T16:52:06.923Z,100576.47
2023-05-22T16:54:33.569Z,100565.97
2023-05-22T16:57:00.231Z,100565.97
2023-05-22T16:59:26.823Z,100564.28
2023-05-22T17:01:53.403Z,100570.56
2023-05-22T17:04:20.703Z,100562.34
2023-05-22T17:06:48.994Z,100567.69
2023-05-22T17:09:15.580Z,100570.19
2023-05-22T17:11:42.122Z,100573.63
2023-05-22T17:14:08.629Z,100576.22
2023-05-22T17:16:35.332Z,100579.03
2023-05-22T17:19:02.036Z,100595.38
2023-05-22T17:21:28.824Z,100586.41
2023-05-22T17:23:55.331Z,100596.31
2023-05-22T17:26:21.968Z,100597.09
2023-05-22T17:28:48.620Z,100601.56
2023-05-22T17:31:15.213Z,100608.84
2023-05-22T17:33:43.335Z,100602.13
2023-05-22T17:36:09.901Z,100611.41
2023-05-22T17:38:37.506Z,100625.00
2023-05-22T17:41:04.214Z,100632.03
2023-05-22T17:43:34.925Z,100637.38
2023-05-22T17:46:02.089Z,100631.56
2023-05-22T17:48:28.697Z,100647.13
2023-05-22T17:50:55.638Z,100649.19
2023-05-22T17:53:22.150Z,100648.41
2023-05-22T17:55:50.879Z,100654.94
2023-05-22T17:58:17.625Z,100652.69
2023-05-22T18:00:45.686Z,100648.78
2023-05-22T18:03:13.082Z,100652.16
2023-05-22T18:05:39.796Z,100654.22
2023-05-22T18:08:06.379Z,100654.44
2023-05-22T18:10:32.901Z,100666.53
2023-05-22T18:12:59.539Z,100665.56
2023-05-22T18:15:26.144Z,100666.31
2023-05-22T18:17:52.792Z,100667.22
2023-05-22T18:20:20.168Z,100672.63
2023-05-22T18:22:49.363Z,100680.88
2023-05-22T18:25:16.098Z,100688.38
2023-05-22T18:27:43.003Z,100690.19
2023-05-22T18:30:10.187Z,100687.44
2023-05-22T18:32:37.052Z,100679.47
2023-05-22T18:35:04.682Z,100689.13
2023-05-22T18:37:32.308Z,100692.13
2023-05-22T18:39:59.112Z,100691.13
2023-05-22T18:42:26.069Z,100684.94
2023-05-22T18:44:52.802Z,100692.22
2023-05-22T18:47:19.334Z,100694.31
2023-05-22T18:49:46.303Z,100698.94
2023-05-22T18:52:13.048Z,100693.25
2023-05-22T18:54:39.657Z,100701.88
2023-05-22T18:57:06.589Z,100699.63
2023-05-22T18:59:33.133Z,100700.91
2023-05-22T19:01:59.656Z,100704.94
2023-05-22T19:04:26.428Z,100699.22
2023-05-22T19:06:53.830Z,100696.56
2023-05-22T19:09:20.769Z,100706.75
2023-05-22T19:11:47.609Z,100709.50
2023-05-22T19:14:15.337Z,100713.78
2023-05-22T19:16:43.909Z,100719.84
2023-05-22T19:19:14.770Z,100724.69
2023-05-22T19:21:41.687Z,100721.94
2023-05-22T19:24:08.481Z,100729.13
2023-05-22T19:26:35.368Z,100734.31
2023-05-22T19:29:02.188Z,100731.63
2023-05-22T19:31:29.777Z,100733.59
2023-05-22T19:33:56.886Z,100732.00
2023-05-22T19:36:23.790Z,100732.94
2023-05-22T19:38:53.207Z,100749.66
2023-05-22T19:41:20.702Z,100748.41
2023-05-22T19:43:47.570Z,100758.44
2023-05-22T19:46:14.755Z,100755.09
2023-05-22T19:48:41.676Z,100764.03
2023-05-22T19:51:08.796Z,100767.44
2023-05-22T19:53:36.636Z,100763.25
2023-05-22T19:56:03.579Z,100765.13
2023-05-22T19:58:30.656Z,100765.06
2023-05-22T20:00:57.511Z,100774.91
2023-05-22T20:03:24.599Z,100774.16
2023-05-22T20:05:55.170Z,100778.91
2023-05-22T20:08:22.611Z,100781.69
2023-05-22T20:10:49.639Z,100793.13
2023-05-22T20:13:16.447Z,100800.66
2023-05-22T20:15:43.066Z,100792.41
2023-05-22T20:18:12.589Z,100793.34
2023-05-22T20:20:39.150Z,100791.81
2023-05-22T20:23:05.813Z,100801.66
2023-05-22T20:25:32.363Z,100805.09
2023-05-22T20:27:58.912Z,100800.56
2023-05-22T20:30:25.471Z,100808.72
2023-05-22T20:32:52.075Z,100803.41
2023-05-22T20:35:20.109Z,100808.72
2023-05-22T20:37:47.294Z,100803.75
2023-05-22T20:40:15.047Z,100813.91
2023-05-22T20:42:46.137Z,100809.84
2023-05-22T20:45:14.755Z,100815.50
2023-05-22T20:47:42.815Z,100823.78
2023-05-22T20:50:09.887Z,100825.50
2023-05-22T20:52:39.946Z,100821.81
2023-05-22T20:55:07.354Z,100822.84
2023-05-22T20:57:34.622Z,100829.28
2023-05-22T21:00:01.541Z,100834.13
2023-05-22T21:02:28.235Z,100831.50
2023-05-22T21:04:54.795Z,100826.47
2023-05-22T21:07:21.341Z,100830.19
2023-05-22T21:09:47.860Z,100832.31
2023-05-22T21:12:14.438Z,100827.63
2023-05-22T21:14:41.486Z,100832.06
2023-05-22T21:17:08.100Z,100828.69
2023-05-22T21:19:34.715Z,100825.94
2023-05-22T21:22:01.403Z,100824.09
2023-05-22T21:24:27.964Z,100823.38
2023-05-22T21:26:54.462Z,100824.47
2023-05-22T21:29:20.976Z,100824.69
2023-05-22T21:31:47.571Z,100831.38
2023-05-22T21:34:14.324Z,100832.44
2023-05-22T21:36:41.229Z,100846.63
2023-05-22T21:39:07.739Z,100844.22
2023-05-22T21:41:34.680Z,100844.56
2023-05-22T21:44:01.240Z,100850.16
2023-05-22T21:46:27.847Z,100839.75
2023-05-22T21:48:54.523Z,100849.22
2023-05-22T21:51:21.138Z,100843.50
2023-05-22T21:53:47.860Z,100844.53
2023-05-22T21:56:14.434Z,100841.22
2023-05-22T21:58:40.925Z,100835.75
2023-05-22T22:01:07.467Z,100847.16
2023-05-22T22:03:34.093Z,100851.97
2023-05-22T22:06:00.657Z,100858.31
2023-05-22T22:08:28.438Z,100856.69
2023-05-22T22:10:55.460Z,100860.34
2023-05-22T22:13:22.018Z,100861.19
2023-05-22T22:15:48.494Z,100856.84
2023-05-22T22:18:15.811Z,100855.97
2023-05-22T22:20:44.894Z,100860.50
2023-05-22T22:23:12.178Z,100858.19
2023-05-22T22:25:39.166Z,100868.94
2023-05-22T22:28:07.220Z,100868.16
2023-05-22T22:30:34.037Z,100876.16
2023-05-22T22:33:00.936Z,100874.66
2023-05-22T22:35:31.188Z,100869.34
2023-05-22T22:37:58.241Z,100869.47
2023-05-22T22:40:26.660Z,100867.66
2023-05-22T22:42:53.649Z,100870.28
2023-05-22T22:45:20.344Z,100877.38
2023-05-22T22:47:47.356Z,100890.81
2023-05-22T22:50:13.951Z,100891.72
2023-05-22T22:52:45.398Z,100890.72
2023-05-22T22:55:12.403Z,100900.38
2023-05-22T22:57:39.122Z,100894.63
2023-05-22T23:00:09.278Z,100888.63
2023-05-22T23:02:35.794Z,100897.16
2023-05-22T23:05:02.426Z,100899.16
2023-05-22T23:07:28.989Z,100899.28
2023-05-22T23:09:55.477Z,100910.16
2023-05-22T23:12:21.973Z,100907.75
2023-05-22T23:14:50.500Z,100906.28
2023-05-22T23:17:17.026Z,100918.16
2023-05-22T23:19:43.497Z,100918.03
2023-05-22T23:22:10.039Z,100929.13
2023-05-22T23:24:36.511Z,100918.88
2023-05-22T23:27:03.360Z,100919.06
2023-05-22T23:29:29.827Z,100915.44
2023-05-22T23:31:56.548Z,100920.84
2023-05-22T23:34:23.205Z,100913.97
2023-05-22T23:36:49.710Z,100913.59
2023-05-22T23:39:16.290Z,100913.47
2023-05-22T23:41:42.772Z,100905.56
2023-05-22T23:44:09.319Z,100893.72
2023-05-22T23:46:37.206Z,100908.66
2023-05-22T23:49:03.770Z,100903.63
2023-05-22T23:51:31.234Z,100906.22
2023-05-22T23:53:57.750Z,100907.56
2023-05-22T23:56:24.293Z,100905.72
2023-05-22T23:58:50.792Z,100895.28
